Time;durP1;ratioP1;P1;durP2;ratioP2;P2;SDS_P1;SDS_P2;PMS_P1;PMS_P2;Temp;Humidity;BMP_temperature;BMP_pressure;BME280_temperature;BME280_humidity;BME280_pressure;Samples;Min_cycle;Max_cycle;Signal;HPM_P1;HPM_P2
2021/05/05 00:01:06;;;;;;;23.15;4.70;;;;;;;;;;5068977;28;20117;-63
2021/05/05 00:03:34;;;;;;;23.77;4.50;;;;;;;;;;5052607;28;20021;-61
2021/05/05 00:06:02;;;;;;;32.00;4.90;;;;;;;;;;5051231;28;20389;-60
2021/05/05 00:08:29;;;;;;;28.45;4.65;;;;;;;;;;5044241;28;20029;-60
2021/05/05 00:10:56;;;;;;;21.92;3.95;;;;;;;;;;5054877;28;20370;-61
2021/05/05 00:13:23;;;;;;;29.80;4.75;;;;;;;;;;5057589;28;20023;-60
2021/05/05 00:15:50;;;;;;;28.50;4.55;;;;;;;;;;5049721;28;20040;-60
2021/05/05 00:18:17;;;;;;;26.08;5.03;;;;;;;;;;5050213;28;20013;-61
2021/05/05 00:20:44;;;;;;;27.02;4.70;;;;;;;;;;5056714;28;20457;-60
2021/05/05 00:23:11;;;;;;;25.48;5.63;;;;;;;;;;5062876;28;20032;-61
2021/05/05 00:25:38;;;;;;;21.05;4.50;;;;;;;;;;5039614;28;20036;-62
2021/05/05 00:28:05;;;;;;;15.18;4.75;;;;;;;;;;5062943;28;20039;-62
2021/05/05 00:30:33;;;;;;;24.73;5.50;;;;;;;;;;5041441;28;20476;-61
2021/05/05 00:33:00;;;;;;;25.33;4.78;;;;;;;;;;5053921;28;20028;-59
2021/05/05 00:35:27;;;;;;;38.22;7.65;;;;;;;;;;5053173;28;20045;-59
2021/05/05 00:37:54;;;;;;;23.33;5.40;;;;;;;;;;5053860;28;20468;-59
2021/05/05 00:40:21;;;;;;;28.70;5.22;;;;;;;;;;5053125;28;20499;-59
2021/05/05 00:42:48;;;;;;;26.13;6.72;;;;;;;;;;5048113;28;20021;-60
2021/05/05 00:45:16;;;;;;;22.23;5.75;;;;;;;;;;5073591;28;20017;-60
2021/05/05 00:47:44;;;;;;;22.48;5.75;;;;;;;;;;5073614;28;20017;-61
2021/05/05 00:50:13;;;;;;;24.02;6.50;;;;;;;;;;5073741;28;20134;-62
2021/05/05 00:52:40;;;;;;;24.33;6.13;;;;;;;;;;5073855;28;20060;-61
2021/05/05 00:55:11;;;;;;;35.17;7.43;;;;;;;;;;5064059;28;20025;-59
2021/05/05 00:57:39;;;;;;;36.97;7.75;;;;;;;;;;5057911;28;20083;-62
2021/05/05 01:00:07;;;;;;;27.77;7.05;;;;;;;;;;5035721;28;20044;-60
2021/05/05 01:02:35;;;;;;;26.48;6.72;;;;;;;;;;5033647;28;20076;-60
2021/05/05 01:05:02;;;;;;;25.02;7.30;;;;;;;;;;5035520;28;20410;-62
2021/05/05 01:07:29;;;;;;;34.05;8.75;;;;;;;;;;5034003;28;20029;-62
2021/05/05 01:09:56;;;;;;;42.05;8.27;;;;;;;;;;5033456;28;20063;-61
2021/05/05 01:12:23;;;;;;;38.78;8.20;;;;;;;;;;5032670;28;20516;-60
2021/05/05 01:14:50;;;;;;;37.28;8.85;;;;;;;;;;5042684;28;20029;-61
2021/05/05 01:17:17;;;;;;;34.70;9.15;;;;;;;;;;5035056;28;20014;-60
2021/05/05 01:19:44;;;;;;;25.15;8.40;;;;;;;;;;5020808;28;20072;-60
2021/05/05 01:22:11;;;;;;;33.20;10.10;;;;;;;;;;5032261;28;20052;-61
2021/05/05 01:24:38;;;;;;;33.30;10.20;;;;;;;;;;5035697;28;20017;-60
2021/05/05 01:27:06;;;;;;;23.85;10.10;;;;;;;;;;5048414;28;20676;-59
2021/05/05 01:29:34;;;;;;;34.72;12.07;;;;;;;;;;5052942;28;20024;-60
2021/05/05 01:32:01;;;;;;;29.55;11.88;;;;;;;;;;5046912;28;20108;-60
2021/05/05 01:34:28;;;;;;;36.58;12.82;;;;;;;;;;5021019;28;20036;-60
2021/05/05 01:36:55;;;;;;;31.80;13.25;;;;;;;;;;5033373;28;20025;-60
2021/05/05 01:39:23;;;;;;;32.75;13.13;;;;;;;;;;5015784;28;20033;-59
2021/05/05 01:41:50;;;;;;;27.65;11.85;;;;;;;;;;5035700;28;20031;-60
2021/05/05 01:44:17;;;;;;;31.05;12.90;;;;;;;;;;5033202;28;20462;-60
2021/05/05 01:46:47;;;;;;;32.15;12.93;;;;;;;;;;5034790;28;20072;-61
2021/05/05 01:49:18;;;;;;;32.75;14.20;;;;;;;;;;5032749;28;20024;-62
2021/05/05 01:51:45;;;;;;;32.75;14.90;;;;;;;;;;5034364;28;20017;-62
2021/05/05 01:54:12;;;;;;;34.78;15.25;;;;;;;;;;5031686;28;20036;-62
2021/05/05 01:56:39;;;;;;;35.00;16.05;;;;;;;;;;5025811;28;20116;-60
2021/05/05 01:59:06;;;;;;;43.10;16.65;;;;;;;;;;5051368;28;20045;-63
2021/05/05 02:01:34;;;;;;;45.00;17.65;;;;;;;;;;5048050;28;20074;-61
2021/05/05 02:04:02;;;;;;;38.03;19.25;;;;;;;;;;5053158;28;20092;-60
2021/05/05 02:06:33;;;;;;;38.03;20.83;;;;;;;;;;5052707;28;20536;-63
2021/05/05 02:09:01;;;;;;;40.42;21.58;;;;;;;;;;5052870;28;20047;-62
2021/05/05 02:11:28;;;;;;;37.60;21.15;;;;;;;;;;5035116;28;20021;-61
2021/05/05 02:13:55;;;;;;;37.13;20.02;;;;;;;;;;5052989;28;20017;-62
2021/05/05 02:16:22;;;;;;;33.15;20.42;;;;;;;;;;5052895;28;20123;-60
2021/05/05 02:18:49;;;;;;;34.17;19.35;;;;;;;;;;5052712;28;20024;-60
2021/05/05 02:21:16;;;;;;;37.90;18.88;;;;;;;;;;5052405;28;20032;-61
2021/05/05 02:23:43;;;;;;;39.65;19.48;;;;;;;;;;5055279;28;20024;-63
2021/05/05 02:26:10;;;;;;;41.30;20.08;;;;;;;;;;5052616;28;20021;-64
2021/05/05 02:28:38;;;;;;;46.28;18.88;;;;;;;;;;5054903;28;20024;-61
2021/05/05 02:31:05;;;;;;;34.95;19.00;;;;;;;;;;5051755;28;20172;-59
2021/05/05 02:33:32;;;;;;;36.13;19.02;;;;;;;;;;5060930;28;20070;-60
2021/05/05 02:35:59;;;;;;;38.42;18.92;;;;;;;;;;5050493;28;20021;-59
2021/05/05 02:38:26;;;;;;;38.88;19.92;;;;;;;;;;5051070;28;20035;-59
2021/05/05 02:40:53;;;;;;;36.53;18.55;;;;;;;;;;5052345;28;20418;-60
2021/05/05 02:43:24;;;;;;;40.22;20.25;;;;;;;;;;5070824;28;20017;-59
2021/05/05 02:45:51;;;;;;;37.95;18.83;;;;;;;;;;5071962;28;20071;-60
2021/05/05 02:48:18;;;;;;;34.30;18.67;;;;;;;;;;5070568;28;20021;-60
2021/05/05 02:50:45;;;;;;;39.30;19.25;;;;;;;;;;5052963;28;20487;-60
2021/05/05 02:53:12;;;;;;;38.03;16.95;;;;;;;;;;5072174;28;20021;-61
2021/05/05 02:55:39;;;;;;;40.58;18.60;;;;;;;;;;5065962;28;20024;-60
2021/05/05 02:58:06;;;;;;;32.33;16.90;;;;;;;;;;5078527;28;20024;-61
2021/05/05 03:00:33;;;;;;;39.38;16.83;;;;;;;;;;5079156;28;20162;-59
2021/05/05 03:03:02;;;;;;;30.80;17.38;;;;;;;;;;5068572;28;20051;-59
2021/05/05 03:05:29;;;;;;;33.17;16.92;;;;;;;;;;5072093;28;20121;-58
2021/05/05 03:07:56;;;;;;;35.20;15.75;;;;;;;;;;5088812;28;20024;-59
2021/05/05 03:10:25;;;;;;;34.17;16.30;;;;;;;;;;5090768;28;20050;-60
2021/05/05 03:12:52;;;;;;;29.20;15.23;;;;;;;;;;5089881;28;20508;-59
2021/05/05 03:15:19;;;;;;;31.90;14.45;;;;;;;;;;5091640;28;20028;-61
2021/05/05 03:17:46;;;;;;;30.90;13.98;;;;;;;;;;5092099;28;20468;-60
2021/05/05 03:20:13;;;;;;;30.90;13.55;;;;;;;;;;5073450;28;20032;-60
2021/05/05 03:22:40;;;;;;;28.35;14.38;;;;;;;;;;5091675;28;20024;-61
2021/05/05 03:25:08;;;;;;;33.65;13.27;;;;;;;;;;5089253;28;20472;-59
2021/05/05 03:27:36;;;;;;;28.52;13.18;;;;;;;;;;5074038;28;20039;-59
2021/05/05 03:30:05;;;;;;;27.70;12.18;;;;;;;;;;5091270;28;20021;-61
2021/05/05 03:32:32;;;;;;;25.35;11.93;;;;;;;;;;5091722;28;20062;-62
2021/05/05 03:34:59;;;;;;;20.52;11.25;;;;;;;;;;5091338;28;20039;-61
2021/05/05 03:37:26;;;;;;;22.42;11.85;;;;;;;;;;5089920;28;20020;-60
2021/05/05 03:39:53;;;;;;;28.67;12.02;;;;;;;;;;5091921;28;20028;-60
2021/05/05 03:42:20;;;;;;;30.65;11.40;;;;;;;;;;5091539;28;20078;-62
2021/05/05 03:44:47;;;;;;;21.20;10.95;;;;;;;;;;5091732;28;20017;-62
2021/05/05 03:47:14;;;;;;;21.33;10.82;;;;;;;;;;5090837;28;20027;-61
2021/05/05 03:49:41;;;;;;;21.80;10.07;;;;;;;;;;5090260;28;20043;-63
2021/05/05 03:52:08;;;;;;;24.23;11.02;;;;;;;;;;5090986;28;20042;-62
2021/05/05 03:54:35;;;;;;;19.63;10.07;;;;;;;;;;5091672;28;20020;-62
2021/05/05 03:57:02;;;;;;;18.60;9.63;;;;;;;;;;5091466;28;20111;-63
2021/05/05 03:59:29;;;;;;;26.67;9.75;;;;;;;;;;5090499;28;20040;-63
2021/05/05 04:01:56;;;;;;;22.75;9.38;;;;;;;;;;5090601;28;20115;-61
2021/05/05 04:04:23;;;;;;;22.88;9.95;;;;;;;;;;5077605;28;20028;-61
2021/05/05 04:06:50;;;;;;;18.42;9.98;;;;;;;;;;5095090;28;20020;-63
2021/05/05 04:09:17;;;;;;;19.38;8.45;;;;;;;;;;5095448;28;20353;-64
2021/05/05 04:11:44;;;;;;;25.55;8.93;;;;;;;;;;5094073;28;20526;-65
2021/05/05 04:14:11;;;;;;;17.25;8.75;;;;;;;;;;5094182;28;20058;-62
2021/05/05 04:16:38;;;;;;;21.83;9.02;;;;;;;;;;5095109;28;20055;-61
2021/05/05 04:19:05;;;;;;;17.30;8.15;;;;;;;;;;5095659;28;20039;-64
2021/05/05 04:21:33;;;;;;;16.80;8.00;;;;;;;;;;5095190;28;20024;-63
2021/05/05 04:24:00;;;;;;;17.90;7.68;;;;;;;;;;5093508;28;20076;-60
2021/05/05 04:26:27;;;;;;;16.88;7.75;;;;;;;;;;5094265;28;20471;-62
2021/05/05 04:28:54;;;;;;;19.50;7.53;;;;;;;;;;5094622;28;20055;-64
2021/05/05 04:31:22;;;;;;;16.45;7.78;;;;;;;;;;5095249;28;20049;-63
2021/05/05 04:33:49;;;;;;;17.23;7.53;;;;;;;;;;5094585;28;20016;-63
2021/05/05 04:36:16;;;;;;;15.60;7.10;;;;;;;;;;5093437;28;20069;-61
2021/05/05 04:38:43;;;;;;;13.60;7.45;;;;;;;;;;5093848;28;20388;-61
2021/05/05 04:41:11;;;;;;;16.73;7.75;;;;;;;;;;5094834;28;20038;-62
2021/05/05 04:43:38;;;;;;;14.57;6.82;;;;;;;;;;5094455;28;20100;-61
2021/05/05 04:46:05;;;;;;;17.17;7.28;;;;;;;;;;5094874;28;20499;-63
2021/05/05 04:48:32;;;;;;;14.85;6.93;;;;;;;;;;5092460;28;20049;-62
2021/05/05 04:50:59;;;;;;;11.30;7.00;;;;;;;;;;5094545;28;20038;-64
2021/05/05 04:53:26;;;;;;;9.48;6.03;;;;;;;;;;5094346;28;20039;-61
2021/05/05 04:55:53;;;;;;;12.57;6.65;;;;;;;;;;5094788;28;20020;-63
2021/05/05 04:58:21;;;;;;;10.63;6.45;;;;;;;;;;5094451;28;20495;-60
2021/05/05 05:00:48;;;;;;;10.80;6.07;;;;;;;;;;5091921;28;20119;-60
2021/05/05 05:03:15;;;;;;;12.65;7.00;;;;;;;;;;5090482;28;20017;-59
2021/05/05 05:05:42;;;;;;;13.10;6.07;;;;;;;;;;5073214;28;20024;-60
2021/05/05 05:08:09;;;;;;;14.65;5.68;;;;;;;;;;5074275;28;20103;-57
2021/05/05 05:10:36;;;;;;;15.55;6.00;;;;;;;;;;5055739;28;20070;-59
2021/05/05 05:13:04;;;;;;;9.63;5.47;;;;;;;;;;5070821;28;20048;-59
2021/05/05 05:15:31;;;;;;;13.27;6.10;;;;;;;;;;5073828;28;20016;-59
2021/05/05 05:17:58;;;;;;;13.00;5.90;;;;;;;;;;5074149;28;20039;-60
2021/05/05 05:20:25;;;;;;;11.98;5.50;;;;;;;;;;5073554;28;20081;-58
2021/05/05 05:22:55;;;;;;;13.00;5.80;;;;;;;;;;5073665;28;20116;-61
2021/05/05 05:25:25;;;;;;;9.48;4.82;;;;;;;;;;5071220;28;20032;-60
2021/05/05 05:27:53;;;;;;;11.60;5.20;;;;;;;;;;5074178;28;20024;-59
2021/05/05 05:30:23;;;;;;;9.77;4.78;;;;;;;;;;5073354;28;20021;-60
2021/05/05 05:32:50;;;;;;;11.23;5.20;;;;;;;;;;5073712;28;20062;-59
2021/05/05 05:35:17;;;;;;;8.88;5.25;;;;;;;;;;5072792;28;20025;-60
2021/05/05 05:37:45;;;;;;;11.45;5.28;;;;;;;;;;5072264;28;20480;-59
2021/05/05 05:40:12;;;;;;;8.13;4.95;;;;;;;;;;5073467;28;20036;-59
2021/05/05 05:42:40;;;;;;;7.15;4.50;;;;;;;;;;5073101;28;20033;-63
2021/05/05 05:45:07;;;;;;;8.82;4.78;;;;;;;;;;5073485;28;20021;-64
2021/05/05 05:47:34;;;;;;;9.65;4.88;;;;;;;;;;5072350;28;20192;-63
2021/05/05 05:50:01;;;;;;;8.40;5.00;;;;;;;;;;5072143;28;20234;-62
2021/05/05 05:52:28;;;;;;;10.23;5.18;;;;;;;;;;5073081;28;20039;-64
2021/05/05 05:54:55;;;;;;;8.05;4.18;;;;;;;;;;5073118;28;20070;-64
2021/05/05 05:57:22;;;;;;;8.30;4.72;;;;;;;;;;5072921;28;20027;-63
2021/05/05 05:59:50;;;;;;;8.30;4.57;;;;;;;;;;5072200;28;20044;-63
2021/05/05 06:02:17;;;;;;;7.55;4.22;;;;;;;;;;5071478;28;20044;-62
2021/05/05 06:04:44;;;;;;;11.10;4.65;;;;;;;;;;5073085;28;20024;-64
2021/05/05 06:07:11;;;;;;;6.75;4.57;;;;;;;;;;5072667;28;20033;-63
2021/05/05 06:09:38;;;;;;;7.30;4.40;;;;;;;;;;5073027;28;20027;-63
2021/05/05 06:12:06;;;;;;;8.20;4.55;;;;;;;;;;5071130;28;20560;-64
2021/05/05 06:14:33;;;;;;;8.43;4.45;;;;;;;;;;5072221;28;20095;-62
2021/05/05 06:17:00;;;;;;;8.50;4.40;;;;;;;;;;5072430;28;20021;-64
2021/05/05 06:19:27;;;;;;;8.55;4.20;;;;;;;;;;5073074;28;20082;-63
2021/05/05 06:21:54;;;;;;;7.47;4.30;;;;;;;;;;5072997;28;20043;-64
2021/05/05 06:24:21;;;;;;;9.20;4.80;;;;;;;;;;5069920;28;20032;-63
2021/05/05 06:26:48;;;;;;;8.70;4.57;;;;;;;;;;5072360;28;20032;-63
2021/05/05 06:29:18;;;;;;;6.93;4.15;;;;;;;;;;5072319;28;20067;-64
2021/05/05 06:31:45;;;;;;;6.50;3.75;;;;;;;;;;5072819;28;20375;-64
2021/05/05 06:34:12;;;;;;;6.55;3.60;;;;;;;;;;5071941;28;20091;-62
2021/05/05 06:36:39;;;;;;;6.45;4.07;;;;;;;;;;5070708;28;20121;-63
2021/05/05 06:39:08;;;;;;;6.50;3.83;;;;;;;;;;5071795;28;20042;-64
2021/05/05 06:41:39;;;;;;;9.13;4.50;;;;;;;;;;5072377;28;20032;-63
2021/05/05 06:44:06;;;;;;;7.38;3.83;;;;;;;;;;5071826;28;20082;-64
2021/05/05 06:46:34;;;;;;;7.43;4.10;;;;;;;;;;5072653;28;20025;-64
2021/05/05 06:49:02;;;;;;;6.03;3.83;;;;;;;;;;5069581;28;20028;-64
2021/05/05 06:51:29;;;;;;;6.28;3.60;;;;;;;;;;5072345;28;20352;-64
2021/05/05 06:53:56;;;;;;;7.32;4.00;;;;;;;;;;5071780;28;20032;-64
2021/05/05 06:56:23;;;;;;;7.15;4.32;;;;;;;;;;5071883;28;20055;-65
2021/05/05 06:58:50;;;;;;;7.55;3.83;;;;;;;;;;5071834;28;20051;-63
2021/05/05 07:01:18;;;;;;;5.82;3.85;;;;;;;;;;5070004;28;20039;-64
2021/05/05 07:03:45;;;;;;;6.18;3.70;;;;;;;;;;5072411;28;20464;-63
2021/05/05 07:06:12;;;;;;;5.53;3.22;;;;;;;;;;5071524;28;20036;-63
2021/05/05 07:08:39;;;;;;;5.57;3.63;;;;;;;;;;5072225;28;20034;-65
2021/05/05 07:11:06;;;;;;;6.70;3.35;;;;;;;;;;5071130;28;20029;-62
2021/05/05 07:13:34;;;;;;;5.97;3.50;;;;;;;;;;5070455;28;20471;-64
2021/05/05 07:16:01;;;;;;;4.82;3.47;;;;;;;;;;5071553;28;20575;-62
2021/05/05 07:18:28;;;;;;;5.40;3.40;;;;;;;;;;5071786;28;20021;-65
2021/05/05 07:20:57;;;;;;;6.05;3.47;;;;;;;;;;5071446;28;20048;-61
2021/05/05 07:23:25;;;;;;;6.32;3.70;;;;;;;;;;5053590;28;20499;-65
2021/05/05 07:25:52;;;;;;;6.25;3.45;;;;;;;;;;5069918;28;20020;-63
2021/05/05 07:28:19;;;;;;;5.80;3.40;;;;;;;;;;5071923;28;20511;-60
2021/05/05 07:30:46;;;;;;;5.43;3.33;;;;;;;;;;5071755;28;20020;-60
2021/05/05 07:33:14;;;;;;;6.30;3.50;;;;;;;;;;5071989;28;20055;-60
2021/05/05 07:35:49;;;;;;;5.45;3.10;;;;;;;;;;5069626;28;20036;-60
2021/05/05 07:39:13;;;;;;;5.90;3.00;;;;;;;;;;5070538;28;20107;-60
2021/05/05 07:46:49;;;;;;;5.90;3.13;;;;;;;;;;5071469;28;20079;-61
2021/05/05 07:49:17;;;;;;;4.57;2.80;;;;;;;;;;5069542;28;20059;-59
2021/05/05 07:51:45;;;;;;;3.95;2.38;;;;;;;;;;5071359;28;20366;-60
2021/05/05 07:54:16;;;;;;;5.57;2.78;;;;;;;;;;5071521;28;20040;-60
2021/05/05 07:56:43;;;;;;;4.13;2.83;;;;;;;;;;5070970;28;20099;-59
2021/05/05 07:59:11;;;;;;;4.57;2.83;;;;;;;;;;5071258;28;20045;-60
2021/05/05 08:01:40;;;;;;;6.43;2.83;;;;;;;;;;5069441;28;20072;-60
2021/05/05 08:04:08;;;;;;;5.05;3.10;;;;;;;;;;5071451;28;20104;-60
2021/05/05 08:06:35;;;;;;;4.55;2.90;;;;;;;;;;5053737;28;20365;-60
2021/05/05 08:09:02;;;;;;;7.50;3.17;;;;;;;;;;5071449;28;20042;-59
2021/05/05 08:11:29;;;;;;;6.47;2.67;;;;;;;;;;5052578;28;20056;-59
2021/05/05 08:13:56;;;;;;;7.03;2.72;;;;;;;;;;5069945;28;20162;-60
2021/05/05 08:16:23;;;;;;;5.20;2.83;;;;;;;;;;5053406;28;20459;-60
2021/05/05 08:18:51;;;;;;;5.13;2.70;;;;;;;;;;5071125;28;20086;-60
2021/05/05 08:21:19;;;;;;;4.22;2.65;;;;;;;;;;5071420;28;20040;-59
2021/05/05 08:23:46;;;;;;;5.25;2.60;;;;;;;;;;5069804;28;20025;-59
2021/05/05 08:26:13;;;;;;;5.30;2.72;;;;;;;;;;5070103;28;20035;-61
2021/05/05 08:28:40;;;;;;;4.32;2.40;;;;;;;;;;5070939;28;20027;-60
2021/05/05 08:31:07;;;;;;;4.25;2.55;;;;;;;;;;5071540;28;20028;-60
2021/05/05 08:33:35;;;;;;;4.70;2.38;;;;;;;;;;5070950;28;20020;-60
2021/05/05 08:36:02;;;;;;;5.15;2.22;;;;;;;;;;5069469;28;20040;-60
2021/05/05 08:38:29;;;;;;;4.45;2.22;;;;;;;;;;5070526;28;20100;-60
2021/05/05 08:40:56;;;;;;;5.47;2.85;;;;;;;;;;5071190;28;20044;-60
2021/05/05 08:43:23;;;;;;;3.63;2.20;;;;;;;;;;5071074;28;20032;-60
2021/05/05 08:45:52;;;;;;;4.50;2.35;;;;;;;;;;5071387;28;20115;-61
2021/05/05 08:48:21;;;;;;;3.58;2.33;;;;;;;;;;5051534;28;20551;-60
2021/05/05 08:50:48;;;;;;;4.18;2.40;;;;;;;;;;5074298;28;20024;-60
2021/05/05 08:53:15;;;;;;;2.95;1.92;;;;;;;;;;5074948;28;20025;-59
2021/05/05 08:55:42;;;;;;;4.85;2.38;;;;;;;;;;5073967;28;20519;-59
2021/05/05 08:58:10;;;;;;;4.07;2.15;;;;;;;;;;5074266;28;20044;-59
2021/05/05 09:00:37;;;;;;;4.30;2.38;;;;;;;;;;5072046;28;20064;-61
2021/05/05 09:03:06;;;;;;;5.43;2.40;;;;;;;;;;5074657;28;20023;-60
2021/05/05 09:05:47;;;;;;;3.95;2.03;;;;;;;;;;5073930;28;20107;-59
2021/05/05 09:08:14;;;;;;;3.17;1.95;;;;;;;;;;5074157;28;20028;-60
2021/05/05 09:10:55;;;;;;;3.25;2.03;;;;;;;;;;5074124;28;20384;-59
2021/05/05 09:13:41;;;;;;;3.92;1.80;;;;;;;;;;5072405;28;20035;-60
2021/05/05 09:16:08;;;;;;;4.35;2.20;;;;;;;;;;5056044;28;20032;-61
2021/05/05 09:18:52;;;;;;;4.03;2.15;;;;;;;;;;5074165;28;20027;-64
2021/05/05 09:21:45;;;;;;;3.80;2.10;;;;;;;;;;5073814;28;20028;-64
2021/05/05 09:24:30;;;;;;;3.03;1.98;;;;;;;;;;5068422;28;20067;-63
2021/05/05 09:27:06;;;;;;;3.35;1.98;;;;;;;;;;5073367;28;20021;-61
2021/05/05 09:29:41;;;;;;;2.50;1.70;;;;;;;;;;5074133;28;20028;-62
2021/05/05 09:32:08;;;;;;;2.90;1.95;;;;;;;;;;5073573;28;20021;-62
2021/05/05 09:34:36;;;;;;;3.70;2.00;;;;;;;;;;5074205;28;20028;-63
2021/05/05 09:37:05;;;;;;;4.10;1.77;;;;;;;;;;5071134;28;20021;-63
2021/05/05 09:39:34;;;;;;;2.85;1.63;;;;;;;;;;5073944;28;20032;-63
2021/05/05 09:42:02;;;;;;;4.10;1.85;;;;;;;;;;5073347;28;20101;-63
2021/05/05 09:44:29;;;;;;;3.10;1.90;;;;;;;;;;5073902;28;20099;-61
2021/05/05 09:46:58;;;;;;;3.15;1.90;;;;;;;;;;5072822;28;20044;-62
2021/05/05 09:49:28;;;;;;;2.70;1.40;;;;;;;;;;5071767;28;20017;-61
2021/05/05 09:51:58;;;;;;;2.40;1.50;;;;;;;;;;5055482;28;20054;-62
2021/05/05 09:54:38;;;;;;;3.63;1.65;;;;;;;;;;5073264;28;20480;-62
2021/05/05 09:57:21;;;;;;;2.58;1.70;;;;;;;;;;5072937;28;20024;-58
2021/05/05 10:00:14;;;;;;;3.60;1.60;;;;;;;;;;5071591;28;20052;-58
2021/05/05 10:02:46;;;;;;;4.07;1.83;;;;;;;;;;5068442;28;20560;-58
2021/05/05 10:05:17;;;;;;;3.80;1.70;;;;;;;;;;5073521;28;20020;-60
2021/05/05 10:07:50;;;;;;;2.67;1.33;;;;;;;;;;5066208;28;20035;-60
2021/05/05 10:10:18;;;;;;;2.38;1.55;;;;;;;;;;5068361;28;20028;-59
2021/05/05 10:12:45;;;;;;;7.70;1.60;;;;;;;;;;5050749;28;20021;-60
2021/05/05 10:15:15;;;;;;;3.58;1.73;;;;;;;;;;5033360;28;20412;-60
2021/05/05 10:17:43;;;;;;;3.30;1.67;;;;;;;;;;5032669;28;20030;-61
2021/05/05 10:20:10;;;;;;;2.70;1.60;;;;;;;;;;5033359;28;20539;-58
2021/05/05 10:22:37;;;;;;;4.13;1.40;;;;;;;;;;5032608;28;20477;-60
2021/05/05 10:25:05;;;;;;;4.07;1.67;;;;;;;;;;5030755;28;20032;-61
2021/05/05 10:27:32;;;;;;;2.92;1.40;;;;;;;;;;5032654;28;20053;-60
2021/05/05 10:30:00;;;;;;;3.83;2.15;;;;;;;;;;5032870;28;20115;-62
2021/05/05 10:32:32;;;;;;;2.17;1.60;;;;;;;;;;5032776;28;20041;-61
2021/05/05 10:34:59;;;;;;;2.03;1.30;;;;;;;;;;5032593;28;20022;-60
2021/05/05 10:37:46;;;;;;;3.08;1.58;;;;;;;;;;5030887;28;20123;-62
2021/05/05 10:40:17;;;;;;;2.58;1.58;;;;;;;;;;5041270;28;20021;-62
2021/05/05 10:42:52;;;;;;;3.33;1.30;;;;;;;;;;5052079;28;20396;-62
2021/05/05 10:45:34;;;;;;;1.48;1.02;;;;;;;;;;5052270;28;20013;-62
2021/05/05 10:48:06;;;;;;;3.03;1.38;;;;;;;;;;5050491;28;20025;-63
2021/05/05 10:50:51;;;;;;;1.98;1.00;;;;;;;;;;5051709;28;20025;-62
2021/05/05 10:53:20;;;;;;;1.80;1.25;;;;;;;;;;5052040;28;20389;-62
2021/05/05 10:55:53;;;;;;;1.95;1.40;;;;;;;;;;5052106;28;20017;-62
2021/05/05 10:58:27;;;;;;;2.40;1.23;;;;;;;;;;5052980;28;20048;-62
2021/05/05 11:00:55;;;;;;;2.05;1.08;;;;;;;;;;5069372;28;20025;-62
2021/05/05 11:03:41;;;;;;;1.83;1.00;;;;;;;;;;5090700;28;20494;-60
2021/05/05 11:06:26;;;;;;;1.40;1.00;;;;;;;;;;5083246;28;20047;-60
2021/05/05 11:08:53;;;;;;;2.15;1.13;;;;;;;;;;5077787;28;20142;-62
2021/05/05 11:11:36;;;;;;;2.55;1.30;;;;;;;;;;5075720;28;20021;-60
2021/05/05 11:14:03;;;;;;;3.15;1.20;;;;;;;;;;5068579;28;20027;-63
2021/05/05 11:16:50;;;;;;;6.43;1.52;;;;;;;;;;5044899;28;20488;-62
2021/05/05 11:19:36;;;;;;;9.05;1.67;;;;;;;;;;5060512;28;20032;-59
2021/05/05 11:22:07;;;;;;;6.00;1.50;;;;;;;;;;5066401;28;20041;-56
2021/05/05 11:24:40;;;;;;;4.40;1.17;;;;;;;;;;5063444;28;20500;-57
2021/05/05 11:27:09;;;;;;;6.40;1.30;;;;;;;;;;5071111;28;20029;-51
2021/05/05 11:29:38;;;;;;;4.18;1.25;;;;;;;;;;5071471;28;20017;-59
2021/05/05 11:32:05;;;;;;;2.88;1.10;;;;;;;;;;5070801;28;20476;-53
2021/05/05 11:34:33;;;;;;;3.70;1.40;;;;;;;;;;5072119;28;20090;-59
2021/05/05 11:37:00;;;;;;;4.05;1.30;;;;;;;;;;5071440;28;20020;-58
2021/05/05 11:39:27;;;;;;;2.15;1.15;;;;;;;;;;5075928;28;20036;-60
2021/05/05 11:41:55;;;;;;;5.20;1.52;;;;;;;;;;5070420;28;20060;-59
2021/05/05 11:44:40;;;;;;;21.42;2.55;;;;;;;;;;5071736;28;20052;-60
2021/05/05 11:47:16;;;;;;;8.88;1.40;;;;;;;;;;5069895;28;20036;-60
2021/05/05 11:49:48;;;;;;;5.80;1.30;;;;;;;;;;5069848;28;20029;-59
2021/05/05 11:52:30;;;;;;;3.93;1.30;;;;;;;;;;5070821;28;20469;-59
2021/05/05 11:55:01;;;;;;;7.05;1.73;;;;;;;;;;5053672;28;20032;-59
2021/05/05 11:57:29;;;;;;;4.45;1.33;;;;;;;;;;5071091;28;20021;-60
2021/05/05 11:59:57;;;;;;;8.10;1.55;;;;;;;;;;5069422;28;20046;-60
2021/05/05 12:02:24;;;;;;;6.65;1.50;;;;;;;;;;5070077;28;20033;-61
2021/05/05 12:04:51;;;;;;;5.47;1.45;;;;;;;;;;5071513;28;20063;-60
2021/05/05 12:07:19;;;;;;;4.57;1.55;;;;;;;;;;5071168;28;20025;-60
2021/05/05 12:09:47;;;;;;;3.42;1.33;;;;;;;;;;5064058;28;20035;-59
2021/05/05 12:12:19;;;;;;;10.88;1.95;;;;;;;;;;5053650;28;20597;-60
2021/05/05 12:14:51;;;;;;;4.80;1.67;;;;;;;;;;5049730;28;20029;-60
2021/05/05 12:20:03;;;;;;;6.75;1.40;;;;;;;;;;5050660;28;20427;-59
2021/05/05 12:22:31;;;;;;;7.18;1.40;;;;;;;;;;5048199;28;20035;-59
2021/05/05 12:25:04;;;;;;;9.18;1.73;;;;;;;;;;5056036;28;20066;-59
2021/05/05 12:27:31;;;;;;;8.00;1.70;;;;;;;;;;5054759;28;20017;-59
2021/05/05 12:30:02;;;;;;;7.25;1.63;;;;;;;;;;5062446;28;20020;-63
2021/05/05 12:33:01;;;;;;;9.88;1.73;;;;;;;;;;5067960;28;20043;-61
2021/05/05 12:35:29;;;;;;;12.27;1.60;;;;;;;;;;4999728;28;20037;-61
2021/05/05 12:37:57;;;;;;;7.18;1.73;;;;;;;;;;5064401;28;20028;-60
2021/05/05 12:40:25;;;;;;;5.68;1.75;;;;;;;;;;5061025;28;20025;-60
2021/05/05 12:42:52;;;;;;;3.53;1.10;;;;;;;;;;5054387;28;20032;-61
2021/05/05 12:45:20;;;;;;;8.65;1.90;;;;;;;;;;5055865;28;20469;-61
2021/05/05 12:47:48;;;;;;;9.18;1.77;;;;;;;;;;5054866;28;20029;-60
2021/05/05 12:50:16;;;;;;;5.50;1.58;;;;;;;;;;5053000;28;20017;-62
2021/05/05 12:52:44;;;;;;;10.55;1.63;;;;;;;;;;5054184;28;20025;-60
2021/05/05 12:55:28;;;;;;;7.80;1.88;;;;;;;;;;5070692;28;20028;-61
2021/05/05 12:58:06;;;;;;;4.75;1.60;;;;;;;;;;5057142;28;20024;-61
2021/05/05 13:00:34;;;;;;;17.13;2.50;;;;;;;;;;5051425;28;20052;-60
2021/05/05 13:03:21;;;;;;;4.65;1.75;;;;;;;;;;5070024;28;20357;-59
2021/05/05 13:05:56;;;;;;;6.45;1.73;;;;;;;;;;5059372;28;20025;-60
2021/05/05 13:08:35;;;;;;;9.10;2.00;;;;;;;;;;5053807;28;20392;-59
2021/05/05 13:11:06;;;;;;;11.50;2.15;;;;;;;;;;5056881;28;20479;-61
2021/05/05 13:13:44;;;;;;;10.85;1.98;;;;;;;;;;5056867;28;20029;-61
2021/05/05 13:16:26;;;;;;;9.75;1.85;;;;;;;;;;5056938;28;20071;-61
2021/05/05 13:19:25;;;;;;;13.38;2.03;;;;;;;;;;5053274;28;20021;-61
2021/05/05 13:30:34;;;;;;;12.98;2.00;;;;;;;;;;5066142;28;20039;-67
2021/05/05 13:33:09;;;;;;;12.88;2.47;;;;;;;;;;5061790;28;20120;-65
2021/05/05 13:35:38;;;;;;;32.75;3.47;;;;;;;;;;5052821;28;20400;-67
2021/05/05 13:38:15;;;;;;;18.92;2.85;;;;;;;;;;5053541;28;20017;-63
2021/05/05 13:40:54;;;;;;;41.20;3.15;;;;;;;;;;5053055;28;20044;-66
2021/05/05 13:46:04;;;;;;;27.05;2.92;;;;;;;;;;5053130;28;20497;-63
2021/05/05 13:48:43;;;;;;;14.65;2.20;;;;;;;;;;5068003;28;20587;-64
2021/05/05 13:51:11;;;;;;;13.25;2.40;;;;;;;;;;5056245;28;20075;-60
2021/05/05 13:53:43;;;;;;;22.13;2.15;;;;;;;;;;5044504;28;20056;-60
2021/05/05 13:56:10;;;;;;;22.00;1.80;;;;;;;;;;5053554;28;20120;-61
2021/05/05 13:58:37;;;;;;;14.88;2.08;;;;;;;;;;5070480;28;20506;-61
2021/05/05 14:01:04;;;;;;;8.65;1.88;;;;;;;;;;5067965;28;20074;-60
2021/05/05 14:03:31;;;;;;;9.43;1.60;;;;;;;;;;5055324;28;20146;-61
2021/05/05 14:05:59;;;;;;;10.40;1.83;;;;;;;;;;5052029;28;20373;-60
2021/05/05 14:08:27;;;;;;;15.23;1.50;;;;;;;;;;5063280;28;20028;-61
2021/05/05 14:10:54;;;;;;;12.93;1.70;;;;;;;;;;5064464;28;20131;-62
2021/05/05 14:13:22;;;;;;;11.10;1.73;;;;;;;;;;5050671;28;20044;-61
2021/05/05 14:15:51;;;;;;;14.05;1.50;;;;;;;;;;5064597;28;20017;-63
2021/05/05 14:18:18;;;;;;;12.10;1.42;;;;;;;;;;5069381;28;20075;-61
2021/05/05 14:20:45;;;;;;;7.63;1.75;;;;;;;;;;5072825;28;20032;-62
2021/05/05 14:23:12;;;;;;;8.63;1.20;;;;;;;;;;5070831;28;20028;-62
2021/05/05 14:25:39;;;;;;;11.25;1.50;;;;;;;;;;5071506;28;20097;-60
2021/05/05 14:28:07;;;;;;;14.43;2.33;;;;;;;;;;5058196;28;20031;-61
2021/05/05 14:30:34;;;;;;;12.75;1.70;;;;;;;;;;5061600;28;20155;-60
2021/05/05 14:33:02;;;;;;;10.00;1.80;;;;;;;;;;5054747;28;20054;-60
2021/05/05 14:35:30;;;;;;;13.43;1.80;;;;;;;;;;5070915;28;20495;-63
2021/05/05 14:38:05;;;;;;;11.75;1.70;;;;;;;;;;5071743;28;20028;-62
2021/05/05 14:40:34;;;;;;;10.55;1.90;;;;;;;;;;5072011;28;20031;-62
2021/05/05 14:50:36;;;;;;;11.52;2.05;;;;;;;;;;5071824;28;20055;-61
2021/05/05 14:53:03;;;;;;;14.10;1.60;;;;;;;;;;5078347;28;20048;-64
2021/05/05 14:55:30;;;;;;;7.80;1.70;;;;;;;;;;5079309;28;20382;-63
2021/05/05 14:58:01;;;;;;;8.80;2.22;;;;;;;;;;5072502;28;20032;-63
2021/05/05 15:00:28;;;;;;;14.27;3.13;;;;;;;;;;5068826;28;20028;-60
2021/05/05 15:02:55;;;;;;;13.02;3.55;;;;;;;;;;5071862;28;20107;-61
2021/05/05 15:05:23;;;;;;;13.32;3.70;;;;;;;;;;5073518;28;20029;-59
2021/05/05 15:07:54;;;;;;;12.73;5.30;;;;;;;;;;5072175;28;20032;-60
2021/05/05 15:10:47;;;;;;;22.60;5.45;;;;;;;;;;5051537;28;20036;-62
2021/05/05 15:13:22;;;;;;;20.25;5.18;;;;;;;;;;5048853;28;20425;-60